createdAt,value
2023-04-26T00:00:11.919Z,84.80
2023-04-26T00:01:14.727Z,84.90
2023-04-26T00:02:18.721Z,84.90
2023-04-26T00:03:21.784Z,85.00
2023-04-26T00:04:25.634Z,85.00
2023-04-26T00:05:29.649Z,85.00
2023-04-26T00:06:33.230Z,85.00
2023-04-26T00:07:38.036Z,85.00
2023-04-26T00:08:42.323Z,85.00
2023-04-26T00:09:46.145Z,85.00
2023-04-26T00:10:49.532Z,85.10
2023-04-26T00:11:51.869Z,85.10
2023-04-26T00:12:55.274Z,85.20
2023-04-26T00:13:59.897Z,85.10
2023-04-26T00:15:03.404Z,85.10
2023-04-26T00:16:06.789Z,85.10
2023-04-26T00:17:10.234Z,85.10
2023-04-26T00:18:12.767Z,85.10
2023-04-26T00:19:17.655Z,85.20
2023-04-26T00:20:20.157Z,85.20
2023-04-26T00:21:23.481Z,85.20
2023-04-26T00:22:25.844Z,85.20
2023-04-26T00:23:29.238Z,85.40
2023-04-26T00:24:32.479Z,85.40
2023-04-26T00:25:37.462Z,85.40
2023-04-26T00:26:39.817Z,85.40
2023-04-26T00:27:43.236Z,85.40
2023-04-26T00:28:45.647Z,85.50
2023-04-26T00:29:49.019Z,85.50
2023-04-26T00:30:51.606Z,85.50
2023-04-26T00:31:55.035Z,85.50
2023-04-26T00:32:58.099Z,85.50
2023-04-26T00:34:01.541Z,85.60
2023-04-26T00:35:04.730Z,85.50
2023-04-26T00:36:09.587Z,85.60
2023-04-26T00:37:13.174Z,85.60
2023-04-26T00:38:16.784Z,85.60
2023-04-26T00:39:19.183Z,85.60
2023-04-26T00:40:22.506Z,85.70
2023-04-26T00:41:26.920Z,85.70
2023-04-26T00:42:30.359Z,85.70
2023-04-26T00:43:32.874Z,85.70
2023-04-26T00:44:36.381Z,85.70
2023-04-26T00:45:39.107Z,85.80
2023-04-26T00:46:42.735Z,85.80
2023-04-26T00:47:45.463Z,85.80
2023-04-26T00:48:49.172Z,85.90
2023-04-26T00:49:52.570Z,86.00
2023-04-26T00:50:56.662Z,86.00
2023-04-26T00:51:59.583Z,86.10
2023-04-26T00:53:04.808Z,86.10
2023-04-26T00:54:08.645Z,86.20
2023-04-26T00:55:12.310Z,86.20
2023-04-26T00:56:16.601Z,86.20
2023-04-26T00:57:21.498Z,86.30
2023-04-26T00:58:24.290Z,86.40
2023-04-26T00:59:28.424Z,86.40
2023-04-26T01:00:30.759Z,86.50
2023-04-26T01:01:35.572Z,86.50
2023-04-26T01:02:38.633Z,86.60
2023-04-26T01:03:44.498Z,86.60
2023-04-26T01:04:48.173Z,86.70
2023-04-26T01:05:52.124Z,86.70
2023-04-26T01:06:55.264Z,86.80
2023-04-26T01:07:59.864Z,86.80
2023-04-26T01:09:05.262Z,86.80
2023-04-26T01:10:10.439Z,87.00
2023-04-26T01:11:12.812Z,87.00
2023-04-26T01:12:16.686Z,87.00
2023-04-26T01:13:20.894Z,87.10
2023-04-26T01:14:24.889Z,87.10
2023-04-26T01:15:28.418Z,87.10
2023-04-26T01:16:32.448Z,87.20
2023-04-26T01:17:34.808Z,87.20
2023-04-26T01:18:38.252Z,87.20
2023-04-26T01:19:48.275Z,87.30
2023-04-26T01:20:53.065Z,87.30
2023-04-26T01:21:55.572Z,87.30
2023-04-26T01:23:00.608Z,87.40
2023-04-26T01:24:03.240Z,87.30
2023-04-26T01:25:09.320Z,87.40
2023-04-26T01:26:11.976Z,87.40
2023-04-26T01:27:16.756Z,87.40
2023-04-26T01:28:19.256Z,87.40
2023-04-26T01:29:24.346Z,87.40
2023-04-26T01:30:27.029Z,87.40
2023-04-26T01:31:30.627Z,87.40
2023-04-26T01:32:33.752Z,87.40
2023-04-26T01:33:37.168Z,87.40
2023-04-26T01:34:39.548Z,87.40
2023-04-26T01:35:42.979Z,87.40
2023-04-26T01:36:45.765Z,87.40
2023-04-26T01:37:49.472Z,87.40
2023-04-26T01:38:53.355Z,87.50
2023-04-26T01:39:58.654Z,87.50
2023-04-26T01:41:01.024Z,87.50
2023-04-26T01:42:04.828Z,87.50
2023-04-26T01:43:07.902Z,87.50
2023-04-26T01:44:11.444Z,87.50
2023-04-26T01:45:13.868Z,87.50
2023-04-26T01:46:55.658Z,87.50
2023-04-26T01:48:00.245Z,87.60
2023-04-26T01:49:03.780Z,87.60
2023-04-26T01:50:08.454Z,87.60
2023-04-26T01:51:11.872Z,87.60
2023-04-26T01:52:14.715Z,87.70
2023-04-26T01:53:18.150Z,87.70
2023-04-26T01:54:21.892Z,87.80
2023-04-26T01:55:25.439Z,87.80
2023-04-26T01:56:27.917Z,87.80
2023-04-26T01:57:31.565Z,87.80
2023-04-26T01:58:34.072Z,87.80
2023-04-26T01:59:37.380Z,87.80
2023-04-26T02:00:39.764Z,87.90
2023-04-26T02:01:43.971Z,87.90
2023-04-26T02:02:46.539Z,87.90
2023-04-26T02:03:50.578Z,87.90
2023-04-26T02:04:54.999Z,88.00
2023-04-26T02:06:01.817Z,88.00
2023-04-26T02:07:04.559Z,88.00
2023-04-26T02:08:07.936Z,88.00
2023-04-26T02:09:11.354Z,88.00
2023-04-26T02:10:18.418Z,87.90
2023-04-26T02:11:21.264Z,87.90
2023-04-26T02:12:24.553Z,87.90
2023-04-26T02:13:27.133Z,87.90
2023-04-26T02:14:31.070Z,88.00
2023-04-26T02:15:33.425Z,88.00
2023-04-26T02:16:37.122Z,88.10
2023-04-26T02:17:40.048Z,88.10
2023-04-26T02:18:44.517Z,88.10
2023-04-26T02:19:47.414Z,88.10
2023-04-26T02:20:53.348Z,88.10
2023-04-26T02:21:58.152Z,88.10
2023-04-26T02:23:01.507Z,88.10
2023-04-26T02:24:04.230Z,88.10
2023-04-26T02:25:08.661Z,88.10
2023-04-26T02:26:13.579Z,88.20
2023-04-26T02:27:20.039Z,88.20
2023-04-26T02:28:22.377Z,88.20
2023-04-26T02:29:42.197Z,88.20
2023-04-26T02:30:46.698Z,88.30
2023-04-26T02:31:50.270Z,88.30
2023-04-26T02:32:54.364Z,88.30
2023-04-26T02:33:57.739Z,88.30
2023-04-26T02:35:00.176Z,88.40
2023-04-26T02:36:06.008Z,88.40
2023-04-26T02:37:08.899Z,88.40
2023-04-26T02:38:12.418Z,88.50
2023-04-26T02:39:14.947Z,88.60
2023-04-26T02:40:18.588Z,88.60
2023-04-26T02:41:23.493Z,88.70
2023-04-26T02:42:27.115Z,88.70
2023-04-26T02:43:30.262Z,88.70
2023-04-26T02:44:33.998Z,88.70
2023-04-26T02:45:42.567Z,88.80
2023-04-26T02:46:47.902Z,88.80
2023-04-26T02:47:51.061Z,88.80
2023-04-26T02:48:54.838Z,88.80
2023-04-26T02:49:57.287Z,88.80
2023-04-26T02:51:00.869Z,88.80
2023-04-26T02:52:03.820Z,88.80
2023-04-26T02:53:08.191Z,88.80
2023-04-26T02:54:10.754Z,88.80
2023-04-26T02:55:14.306Z,88.80
2023-04-26T02:56:16.745Z,88.90
2023-04-26T02:57:21.537Z,88.90
2023-04-26T02:58:25.909Z,88.90
2023-04-26T02:59:29.267Z,88.90
2023-04-26T03:00:31.724Z,88.90
2023-04-26T03:01:35.147Z,89.00
2023-04-26T03:02:37.807Z,89.00
2023-04-26T03:03:41.505Z,89.00
2023-04-26T03:04:44.057Z,89.00
2023-04-26T03:05:47.468Z,89.00
2023-04-26T03:06:49.818Z,89.00
2023-04-26T03:07:53.679Z,89.00
2023-04-26T03:08:56.442Z,89.00
2023-04-26T03:10:00.412Z,89.10
2023-04-26T03:11:05.050Z,89.10
2023-04-26T03:12:09.614Z,89.10
2023-04-26T03:13:15.167Z,89.10
2023-04-26T03:14:19.015Z,89.10
2023-04-26T03:15:22.311Z,89.10
2023-04-26T03:16:25.939Z,89.10
2023-04-26T03:17:28.658Z,89.20
2023-04-26T03:18:32.400Z,89.20
2023-04-26T03:19:35.378Z,89.20
2023-04-26T03:20:41.041Z,89.20
2023-04-26T03:21:43.469Z,89.20
2023-04-26T03:22:47.685Z,89.30
2023-04-26T03:23:50.258Z,89.30
2023-04-26T03:24:53.619Z,89.30
2023-04-26T03:25:56.157Z,89.40
2023-04-26T03:27:00.088Z,89.40
2023-04-26T03:28:02.455Z,89.40
2023-04-26T03:29:07.605Z,89.60
2023-04-26T03:30:11.141Z,89.60
2023-04-26T03:31:16.359Z,89.60
2023-04-26T03:32:18.801Z,89.60
2023-04-26T03:33:22.375Z,89.70
2023-04-26T03:34:24.990Z,89.70
2023-04-26T03:35:28.915Z,89.70
2023-04-26T03:36:32.842Z,89.70
2023-04-26T03:37:35.218Z,89.80
2023-04-26T03:38:42.837Z,89.80
2023-04-26T03:39:46.178Z,89.80
2023-04-26T03:40:50.378Z,89.80
2023-04-26T03:41:52.652Z,89.80
2023-04-26T03:42:56.055Z,89.80
2023-04-26T03:43:58.396Z,89.80
2023-04-26T03:45:04.025Z,89.80
2023-04-26T03:46:07.440Z,89.70
2023-04-26T03:47:09.847Z,89.80
2023-04-26T03:48:13.493Z,89.80
2023-04-26T03:49:16.058Z,89.80
2023-04-26T03:50:19.737Z,89.80
2023-04-26T03:51:22.545Z,89.80
2023-04-26T03:52:26.033Z,89.70
2023-04-26T03:53:28.655Z,89.80
2023-04-26T03:54:32.137Z,89.80
2023-04-26T03:55:34.604Z,89.70
2023-04-26T03:56:39.253Z,89.80
2023-04-26T03:57:41.880Z,89.80
2023-04-26T03:58:45.559Z,89.70
2023-04-26T03:59:49.467Z,89.70
2023-04-26T04:00:56.970Z,89.70
2023-04-26T04:02:01.005Z,89.70
2023-04-26T04:03:03.918Z,89.70
2023-04-26T04:04:08.411Z,89.70
2023-04-26T04:05:11.322Z,89.70
2023-04-26T04:06:14.809Z,89.70
2023-04-26T04:07:19.246Z,89.70
2023-04-26T04:08:22.852Z,89.70
2023-04-26T04:09:25.453Z,89.70
2023-04-26T04:10:29.091Z,89.70
2023-04-26T04:11:31.580Z,89.70
2023-04-26T04:12:34.900Z,89.70
2023-04-26T04:13:40.462Z,89.70
2023-04-26T04:14:43.088Z,89.80
2023-04-26T04:15:47.268Z,89.80
2023-04-26T04:16:51.194Z,89.80
2023-04-26T04:17:54.810Z,89.80
2023-04-26T04:18:57.317Z,89.80
2023-04-26T04:20:05.166Z,89.80
2023-04-26T04:21:07.640Z,89.80
2023-04-26T04:22:11.108Z,89.80
2023-04-26T04:23:13.595Z,89.80
2023-04-26T04:24:17.697Z,89.80
2023-04-26T04:25:22.452Z,89.80
2023-04-26T04:26:26.390Z,89.80
2023-04-26T04:27:29.069Z,89.80
2023-04-26T04:28:32.628Z,89.90
2023-04-26T04:29:35.123Z,89.90
2023-04-26T04:30:38.468Z,89.90
2023-04-26T04:31:41.662Z,89.90
2023-04-26T04:32:47.245Z,89.90
2023-04-26T04:33:51.704Z,89.90
2023-04-26T04:34:55.279Z,89.90
2023-04-26T04:35:58.812Z,89.90
2023-04-26T04:37:02.434Z,89.90
2023-04-26T04:38:04.918Z,89.90
2023-04-26T04:39:13.677Z,89.90
2023-04-26T04:40:16.800Z,89.90
2023-04-26T04:41:23.765Z,90.00
2023-04-26T04:42:27.431Z,90.00
2023-04-26T04:43:33.072Z,90.10
2023-04-26T04:44:35.544Z,90.10
2023-04-26T04:45:40.550Z,90.10
2023-04-26T04:46:43.800Z,90.10
2023-04-26T04:47:48.922Z,90.00
2023-04-26T04:48:52.006Z,90.00
2023-04-26T04:49:57.337Z,90.10
2023-04-26T04:50:59.792Z,90.10
2023-04-26T04:52:03.230Z,90.10
2023-04-26T04:53:05.726Z,90.10
2023-04-26T04:54:13.531Z,90.10
2023-04-26T04:55:16.674Z,90.10
2023-04-26T04:56:21.815Z,90.10
2023-04-26T04:57:24.385Z,90.10
2023-04-26T04:58:27.915Z,90.00
2023-04-26T04:59:31.443Z,89.80
2023-04-26T05:00:35.133Z,89.70
2023-04-26T05:01:45.267Z,89.60
2023-04-26T05:02:52.585Z,89.50
2023-04-26T05:03:55.969Z,89.50
2023-04-26T05:05:01.455Z,89.30
2023-04-26T05:06:05.851Z,89.30
2023-04-26T05:07:08.354Z,89.30
2023-04-26T05:08:12.486Z,89.20
2023-04-26T05:09:15.239Z,89.10
2023-04-26T05:10:19.151Z,88.90
2023-04-26T05:11:26.100Z,88.80
2023-04-26T05:12:29.656Z,88.70
2023-04-26T05:13:32.213Z,88.40
2023-04-26T05:14:36.383Z,88.30
2023-04-26T05:15:39.449Z,88.20
2023-04-26T05:16:43.089Z,88.10
2023-04-26T05:17:45.476Z,88.00
2023-04-26T05:19:01.129Z,87.80
2023-04-26T05:20:07.460Z,87.60
2023-04-26T05:21:11.638Z,87.50
2023-04-26T05:22:18.406Z,87.40
2023-04-26T05:23:21.802Z,87.20
2023-04-26T05:24:25.328Z,87.10
2023-04-26T05:25:27.862Z,86.90
2023-04-26T05:26:41.667Z,86.70
2023-04-26T05:28:04.972Z,86.70
2023-04-26T05:29:34.082Z,86.70
2023-04-26T05:30:51.703Z,86.70
2023-04-26T05:32:01.601Z,86.60
2023-04-26T05:33:22.738Z,86.60
2023-04-26T05:34:32.821Z,86.60
2023-04-26T05:35:36.983Z,86.50
2023-04-26T05:36:40.314Z,86.40
2023-04-26T05:37:44.023Z,86.30
2023-04-26T05:38:47.060Z,86.20
2023-04-26T05:39:51.517Z,86.10
2023-04-26T05:40:53.933Z,86.00
2023-04-26T05:41:57.442Z,85.90
2023-04-26T05:43:00.364Z,85.90
2023-04-26T05:44:04.712Z,86.00
2023-04-26T05:45:10.909Z,85.90
2023-04-26T05:46:14.576Z,85.70
2023-04-26T05:47:17.992Z,85.60
2023-04-26T05:48:21.565Z,85.50
2023-04-26T05:49:25.038Z,85.10
2023-04-26T05:50:29.842Z,84.90
2023-04-26T05:51:32.274Z,84.60
2023-04-26T05:52:35.949Z,84.10
2023-04-26T05:53:39.656Z,83.90
2023-04-26T05:54:42.198Z,83.60
2023-04-26T05:55:45.867Z,83.30
2023-04-26T05:56:49.435Z,82.80
2023-04-26T05:57:53.221Z,82.80
2023-04-26T05:58:56.215Z,82.80
2023-04-26T05:59:59.757Z,82.70
2023-04-26T06:01:03.388Z,82.80
2023-04-26T06:02:05.943Z,82.80
2023-04-26T06:03:10.081Z,82.70
2023-04-26T06:04:13.978Z,82.70
2023-04-26T06:05:45.381Z,82.70
2023-04-26T06:06:49.044Z,82.70
2023-04-26T06:07:52.034Z,82.80
2023-04-26T06:08:55.571Z,82.80
2023-04-26T06:09:58.331Z,82.80
2023-04-26T06:11:01.674Z,83.00
2023-04-26T06:12:05.512Z,83.00
2023-04-26T06:13:11.031Z,82.80
2023-04-26T06:14:28.808Z,83.00
2023-04-26T06:15:35.472Z,83.10
2023-04-26T06:16:39.074Z,83.20
2023-04-26T06:17:42.376Z,83.10
2023-04-26T06:18:46.270Z,82.90
2023-04-26T06:19:48.657Z,83.00
2023-04-26T06:20:54.128Z,82.90
2023-04-26T06:21:57.549Z,82.90
2023-04-26T06:23:01.550Z,82.90
2023-04-26T06:24:05.010Z,83.00
2023-04-26T06:25:09.781Z,83.00
2023-04-26T06:26:14.627Z,83.00
2023-04-26T06:27:17.766Z,83.00
2023-04-26T06:28:24.283Z,83.00
2023-04-26T06:29:26.645Z,83.10
2023-04-26T06:30:31.316Z,83.10
2023-04-26T06:31:34.076Z,83.10
2023-04-26T06:32:40.113Z,83.00
2023-04-26T06:33:43.804Z,83.00
2023-04-26T06:34:46.249Z,82.90
2023-04-26T06:35:49.745Z,82.90
2023-04-26T06:36:53.958Z,83.00
2023-04-26T06:37:59.644Z,83.00
2023-04-26T06:39:02.460Z,83.00
2023-04-26T06:40:07.683Z,83.00
2023-04-26T06:41:10.637Z,83.10
2023-04-26T06:42:14.333Z,83.00
2023-04-26T06:43:35.215Z,83.00
2023-04-26T06:44:42.750Z,82.80
2023-04-26T06:45:46.479Z,82.70
2023-04-26T06:46:49.980Z,82.70
2023-04-26T06:47:52.885Z,82.70
2023-04-26T06:49:00.159Z,82.70
2023-04-26T06:50:03.606Z,82.70
2023-04-26T06:51:08.552Z,82.40
2023-04-26T06:52:12.597Z,82.20
2023-04-26T06:53:16.236Z,82.00
2023-04-26T06:54:18.647Z,82.00
2023-04-26T06:55:22.479Z,81.70
2023-04-26T06:56:24.984Z,81.60
2023-04-26T06:57:28.464Z,81.40
2023-04-26T06:58:31.127Z,81.30
2023-04-26T06:59:35.214Z,81.10
2023-04-26T07:00:38.984Z,81.10
2023-04-26T07:01:42.466Z,81.10
2023-04-26T07:02:45.466Z,81.00
2023-04-26T07:03:49.022Z,80.80
2023-04-26T07:04:52.849Z,80.70
2023-04-26T07:05:57.654Z,80.60
2023-04-26T07:07:00.284Z,80.60
2023-04-26T07:08:05.434Z,80.40
2023-04-26T07:09:08.606Z,80.30
2023-04-26T07:10:12.376Z,80.10
2023-04-26T07:11:15.034Z,79.90
2023-04-26T07:12:18.453Z,79.60
2023-04-26T07:13:21.301Z,79.50
2023-04-26T07:14:25.087Z,79.30
2023-04-26T07:15:29.233Z,79.00
2023-04-26T07:16:33.128Z,78.60
2023-04-26T07:17:35.644Z,78.20
2023-04-26T07:18:40.670Z,78.00
2023-04-26T07:19:43.138Z,77.80
2023-04-26T07:20:46.487Z,77.70
2023-04-26T07:21:49.742Z,77.50
2023-04-26T07:22:53.080Z,77.40
2023-04-26T07:23:57.110Z,77.30
2023-04-26T07:25:00.748Z,76.60
2023-04-26T07:26:04.609Z,76.30
2023-04-26T07:27:08.071Z,76.00
2023-04-26T07:28:10.439Z,75.50
2023-04-26T07:29:14.284Z,75.10
2023-04-26T07:30:18.055Z,74.70
2023-04-26T07:31:20.888Z,74.70
2023-04-26T07:32:24.311Z,74.80
2023-04-26T07:33:27.056Z,74.50
2023-04-26T07:34:30.578Z,74.30
2023-04-26T07:35:35.413Z,74.20
2023-04-26T07:36:39.178Z,74.10
2023-04-26T07:37:43.069Z,74.00
2023-04-26T07:38:45.644Z,73.80
2023-04-26T07:39:50.363Z,73.90
2023-04-26T07:40:53.516Z,73.80
2023-04-26T07:41:57.080Z,73.90
2023-04-26T07:42:59.607Z,74.00
2023-04-26T07:44:03.070Z,74.00
2023-04-26T07:45:07.083Z,74.10
2023-04-26T07:46:10.659Z,74.20
2023-04-26T07:47:14.669Z,74.30
2023-04-26T07:48:18.358Z,74.50
2023-04-26T07:49:21.848Z,74.50
2023-04-26T07:50:25.125Z,74.70
2023-04-26T07:51:28.802Z,74.70
2023-04-26T07:52:32.238Z,74.50
2023-04-26T07:53:34.730Z,74.50
2023-04-26T07:54:39.583Z,74.50
2023-04-26T07:55:43.381Z,74.50
2023-04-26T07:56:46.822Z,74.40
2023-04-26T07:57:49.223Z,74.50
2023-04-26T07:58:52.811Z,74.40
2023-04-26T07:59:56.703Z,74.30
2023-04-26T08:00:59.183Z,74.30
2023-04-26T08:02:02.807Z,74.30
2023-04-26T08:03:05.470Z,74.20
2023-04-26T08:04:10.114Z,74.10
2023-04-26T08:05:13.523Z,74.10
2023-04-26T08:06:17.605Z,74.10
2023-04-26T08:07:20.023Z,74.00
2023-04-26T08:08:23.773Z,74.10
2023-04-26T08:09:26.253Z,74.10
2023-04-26T08:10:29.987Z,74.20
2023-04-26T08:11:33.827Z,74.40
2023-04-26T08:12:38.789Z,74.20
2023-04-26T08:13:43.977Z,74.20
2023-04-26T08:14:47.434Z,74.40
2023-04-26T08:15:49.993Z,74.50
2023-04-26T08:16:53.686Z,74.60
2023-04-26T08:17:56.410Z,74.70
2023-04-26T08:19:02.852Z,74.70
2023-04-26T08:20:07.414Z,74.70
2023-04-26T08:21:11.202Z,74.70
2023-04-26T08:22:13.614Z,74.60
2023-04-26T08:23:16.935Z,74.60
2023-04-26T08:24:20.081Z,74.60
2023-04-26T08:25:23.897Z,74.70
2023-04-26T08:26:27.355Z,74.80
2023-04-26T08:27:31.976Z,74.90
2023-04-26T08:28:35.790Z,75.00
2023-04-26T08:29:38.407Z,75.10
2023-04-26T08:30:41.952Z,75.20
2023-04-26T08:31:44.568Z,75.30
2023-04-26T08:32:48.015Z,75.30
2023-04-26T08:33:52.126Z,75.20
2023-04-26T08:34:55.408Z,75.10
2023-04-26T08:36:01.223Z,75.20
2023-04-26T08:37:03.774Z,75.30
2023-04-26T08:38:07.248Z,75.40
2023-04-26T08:39:12.233Z,75.70
2023-04-26T08:40:14.842Z,75.50
2023-04-26T08:41:24.571Z,75.50
2023-04-26T08:42:29.798Z,75.20
2023-04-26T08:43:38.120Z,75.10
2023-04-26T08:44:43.120Z,74.40
2023-04-26T08:45:47.804Z,73.90
2023-04-26T08:47:04.829Z,73.80
2023-04-26T08:48:13.391Z,73.40
2023-04-26T08:49:28.731Z,73.20
2023-04-26T08:50:34.629Z,72.80
2023-04-26T08:51:37.530Z,73.20
2023-04-26T08:52:42.284Z,73.10
2023-04-26T08:53:45.553Z,73.30
2023-04-26T08:54:50.493Z,73.40
2023-04-26T08:55:55.738Z,73.10
2023-04-26T08:56:59.761Z,72.20
2023-04-26T08:58:03.601Z,71.20
2023-04-26T08:59:09.112Z,70.10
2023-04-26T09:00:15.726Z,69.30
2023-04-26T09:01:21.613Z,68.40
2023-04-26T09:02:24.804Z,67.70
2023-04-26T09:03:29.134Z,66.70
2023-04-26T09:04:31.964Z,65.80
2023-04-26T09:05:36.280Z,65.30
2023-04-26T09:06:39.686Z,64.90
2023-04-26T09:07:45.424Z,64.60
2023-04-26T09:08:49.240Z,64.50
2023-04-26T09:09:54.897Z,64.10
2023-04-26T09:10:58.261Z,63.80
2023-04-26T09:12:02.998Z,63.00
2023-04-26T09:13:06.461Z,62.60
2023-04-26T09:14:10.457Z,62.10
2023-04-26T09:15:16.938Z,61.70
2023-04-26T09:16:20.701Z,61.60
2023-04-26T09:17:28.412Z,60.90
2023-04-26T09:18:33.998Z,60.50
2023-04-26T09:19:38.042Z,60.20
2023-04-26T09:20:42.009Z,60.20
2023-04-26T09:21:47.101Z,59.80
2023-04-26T09:22:52.024Z,59.60
2023-04-26T09:24:04.459Z,59.40
2023-04-26T09:25:09.516Z,59.40
2023-04-26T09:26:21.788Z,59.70
2023-04-26T09:27:34.320Z,59.70
2023-04-26T09:28:37.774Z,59.80
2023-04-26T09:29:44.039Z,59.90
2023-04-26T09:30:47.602Z,60.00
2023-04-26T09:31:50.790Z,59.90
2023-04-26T09:32:57.326Z,60.40
2023-04-26T09:34:00.332Z,60.60
2023-04-26T09:35:04.569Z,61.10
2023-04-26T09:36:13.911Z,61.40
2023-04-26T09:37:16.735Z,61.70
2023-04-26T09:38:20.366Z,62.10
2023-04-26T09:39:37.469Z,62.60
2023-04-26T09:40:43.819Z,63.20
2023-04-26T09:41:46.286Z,63.70
2023-04-26T09:43:02.901Z,64.20
2023-04-26T09:44:05.578Z,64.70
2023-04-26T09:45:11.742Z,65.10
2023-04-26T09:46:25.222Z,65.60
2023-04-26T09:47:27.703Z,65.90
2023-04-26T09:48:34.305Z,66.20
2023-04-26T09:49:46.851Z,66.50
2023-04-26T09:50:53.178Z,67.00
2023-04-26T09:52:03.869Z,67.30
2023-04-26T09:53:07.341Z,67.70
2023-04-26T09:54:10.757Z,68.10
2023-04-26T09:55:34.597Z,68.40
2023-04-26T09:56:39.381Z,68.80
2023-04-26T09:57:45.190Z,69.20
2023-04-26T09:58:59.137Z,69.50
2023-04-26T10:00:12.559Z,69.90
2023-04-26T10:01:18.086Z,70.20
2023-04-26T10:02:22.893Z,70.50
2023-04-26T10:03:27.349Z,70.80
2023-04-26T10:04:31.834Z,71.00
2023-04-26T10:05:35.712Z,71.20
2023-04-26T10:06:38.297Z,71.40
2023-04-26T10:07:42.438Z,71.60
2023-04-26T10:08:46.914Z,71.90
2023-04-26T10:09:50.338Z,72.10
2023-04-26T10:10:54.294Z,72.30
2023-04-26T10:11:58.330Z,72.40
2023-04-26T10:13:01.960Z,72.40
2023-04-26T10:14:06.486Z,72.40
2023-04-26T10:15:13.000Z,72.40
2023-04-26T10:16:17.671Z,72.40
2023-04-26T10:17:20.647Z,72.40
2023-04-26T10:18:24.103Z,72.40
2023-04-26T10:19:26.672Z,72.40
2023-04-26T10:20:30.819Z,72.40
2023-04-26T10:21:37.879Z,72.50
2023-04-26T10:22:47.137Z,72.60
2023-04-26T10:23:49.858Z,72.70
2023-04-26T10:24:55.855Z,72.70
2023-04-26T10:25:59.475Z,72.80
2023-04-26T10:27:04.144Z,72.70
2023-04-26T10:28:07.822Z,72.70
2023-04-26T10:29:10.384Z,72.70
2023-04-26T10:30:16.565Z,72.80
2023-04-26T10:31:20.239Z,72.90
2023-04-26T10:32:24.345Z,73.10
2023-04-26T10:33:28.464Z,73.00
2023-04-26T10:34:33.008Z,73.00
2023-04-26T10:35:38.236Z,73.00
2023-04-26T10:37:10.268Z,73.00
2023-04-26T10:38:12.769Z,73.20
2023-04-26T10:39:23.374Z,73.10
2023-04-26T10:40:28.590Z,72.90
2023-04-26T10:41:36.155Z,72.60
2023-04-26T10:42:41.585Z,72.40
2023-04-26T10:43:44.250Z,72.10
2023-04-26T10:44:47.798Z,71.90
2023-04-26T10:45:51.702Z,71.80
2023-04-26T10:46:55.237Z,71.70
2023-04-26T10:48:17.752Z,71.00
2023-04-26T10:49:25.685Z,69.90
2023-04-26T10:50:30.015Z,69.50
2023-04-26T10:51:32.364Z,68.90
2023-04-26T10:52:36.507Z,68.80
2023-04-26T10:54:00.514Z,68.80
2023-04-26T10:55:05.314Z,68.50
2023-04-26T10:56:08.336Z,67.90
2023-04-26T10:57:12.065Z,67.70
2023-04-26T10:58:31.226Z,67.50
2023-04-26T10:59:47.212Z,67.30
2023-04-26T11:01:17.174Z,66.90
2023-04-26T11:03:09.588Z,66.70
2023-04-26T11:04:13.132Z,66.40
2023-04-26T11:05:36.352Z,66.30
2023-04-26T11:06:51.072Z,65.90
2023-04-26T11:08:09.446Z,65.70
2023-04-26T11:09:38.070Z,65.70
2023-04-26T11:10:40.999Z,65.90
2023-04-26T11:11:54.338Z,65.80
2023-04-26T11:13:04.894Z,65.90
2023-04-26T11:14:08.637Z,65.70
2023-04-26T11:15:13.494Z,65.80
2023-04-26T11:16:18.901Z,65.80
2023-04-26T11:17:21.391Z,65.70
2023-04-26T11:18:25.388Z,65.80
2023-04-26T11:19:28.789Z,65.70
2023-04-26T11:20:32.505Z,65.70
2023-04-26T11:21:37.496Z,65.40
2023-04-26T11:22:41.785Z,65.50
2023-04-26T11:23:54.208Z,65.60
2023-04-26T11:24:56.638Z,65.50
2023-04-26T11:26:03.620Z,65.60
2023-04-26T11:27:10.486Z,65.50
2023-04-26T11:28:14.616Z,65.40
2023-04-26T11:29:20.603Z,65.40
2023-04-26T11:30:23.182Z,65.50
2023-04-26T11:31:28.036Z,65.30
2023-04-26T11:32:30.497Z,65.00
2023-04-26T11:33:35.230Z,65.10
2023-04-26T11:34:39.321Z,65.00
2023-04-26T11:35:42.845Z,64.60
2023-04-26T11:36:47.429Z,64.20
2023-04-26T11:37:51.920Z,64.00
2023-04-26T11:38:55.635Z,64.30
2023-04-26T11:39:58.397Z,64.30
2023-04-26T11:41:03.699Z,64.40
2023-04-26T11:42:07.066Z,64.40
2023-04-26T11:43:13.747Z,64.50
2023-04-26T11:44:21.535Z,64.50
2023-04-26T11:45:23.957Z,64.40
2023-04-26T11:46:28.953Z,64.20
2023-04-26T11:47:32.562Z,64.30
2023-04-26T11:48:38.573Z,64.50
2023-04-26T11:49:41.311Z,64.70
2023-04-26T11:50:45.791Z,64.60
2023-04-26T11:51:49.758Z,64.40
2023-04-26T11:52:54.916Z,64.50
2023-04-26T11:54:01.854Z,64.40
2023-04-26T11:55:06.383Z,64.20
2023-04-26T11:56:17.796Z,64.60
2023-04-26T11:57:20.779Z,65.00
2023-04-26T11:58:24.307Z,65.20
2023-04-26T11:59:29.245Z,65.40
2023-04-26T12:00:32.685Z,65.50
2023-04-26T12:01:36.791Z,65.60
2023-04-26T12:02:40.283Z,65.60
2023-04-26T12:03:44.535Z,65.30
2023-04-26T12:04:47.150Z,65.00
2023-04-26T12:05:56.365Z,64.80
2023-04-26T12:06:59.470Z,64.70
2023-04-26T12:08:02.788Z,64.50
2023-04-26T12:09:05.886Z,63.80
2023-04-26T12:10:19.962Z,63.70
2023-04-26T12:11:23.396Z,63.60
2023-04-26T12:12:25.825Z,63.50
2023-04-26T12:13:30.604Z,63.10
2023-04-26T12:14:34.201Z,63.30
2023-04-26T12:15:37.732Z,63.40
2023-04-26T12:16:43.367Z,62.90
2023-04-26T12:17:57.823Z,62.60
2023-04-26T12:19:05.910Z,62.50
2023-04-26T12:20:13.028Z,61.90
2023-04-26T12:21:17.132Z,61.10
2023-04-26T12:22:21.963Z,61.50
2023-04-26T12:23:26.606Z,61.40
2023-04-26T12:24:33.705Z,61.50
2023-04-26T12:25:39.337Z,62.20
2023-04-26T12:26:46.620Z,62.30
2023-04-26T12:27:51.000Z,62.60
2023-04-26T12:29:00.045Z,61.90
2023-04-26T12:30:03.625Z,61.60
2023-04-26T12:31:07.551Z,61.20
2023-04-26T12:32:11.461Z,60.80
2023-04-26T12:33:17.581Z,60.70
2023-04-26T12:34:20.481Z,60.60
2023-04-26T12:35:25.105Z,60.30
2023-04-26T12:36:29.287Z,60.20
2023-04-26T12:37:32.606Z,60.30
2023-04-26T12:38:35.088Z,59.70
2023-04-26T12:39:38.608Z,59.90
2023-04-26T12:40:41.891Z,59.60
2023-04-26T12:41:46.280Z,59.50
2023-04-26T12:42:49.774Z,59.40
2023-04-26T12:43:53.311Z,59.20
2023-04-26T12:44:55.726Z,59.60
2023-04-26T12:45:59.319Z,59.70
2023-04-26T12:47:01.773Z,59.70
2023-04-26T12:48:07.114Z,60.50
2023-04-26T12:49:09.574Z,60.90
2023-04-26T12:50:14.463Z,61.10
2023-04-26T12:51:19.011Z,60.90
2023-04-26T12:52:21.305Z,61.10
2023-04-26T12:53:24.877Z,61.10
2023-04-26T12:54:28.296Z,61.30
2023-04-26T12:55:33.012Z,61.50
2023-04-26T12:56:40.723Z,60.90
2023-04-26T12:57:44.718Z,60.50
2023-04-26T12:58:48.186Z,60.10
2023-04-26T12:59:50.967Z,59.80
2023-04-26T13:00:54.416Z,59.30
2023-04-26T13:01:56.808Z,58.70
2023-04-26T13:03:00.456Z,58.90
2023-04-26T13:04:06.035Z,59.20
2023-04-26T13:05:10.921Z,58.60
2023-04-26T13:06:14.305Z,58.30
2023-04-26T13:07:17.324Z,58.30
2023-04-26T13:08:20.755Z,58.10
2023-04-26T13:09:23.174Z,58.10
2023-04-26T13:10:27.148Z,57.60
2023-04-26T13:11:30.759Z,57.00
2023-04-26T13:12:35.585Z,57.10
2023-04-26T13:13:43.887Z,57.50
2023-04-26T13:14:47.874Z,57.30
2023-04-26T13:15:50.914Z,57.20
2023-04-26T13:16:56.057Z,57.20
2023-04-26T13:17:59.903Z,57.40
2023-04-26T13:19:03.650Z,57.40
2023-04-26T13:20:09.098Z,57.50
2023-04-26T13:21:11.458Z,57.70
2023-04-26T13:22:14.955Z,57.80
2023-04-26T13:23:18.465Z,57.90
2023-04-26T13:24:21.035Z,57.90
2023-04-26T13:25:24.523Z,57.60
2023-04-26T13:26:28.139Z,57.70
2023-04-26T13:27:31.781Z,57.90
2023-04-26T13:28:37.422Z,58.20
2023-04-26T13:29:39.913Z,58.30
2023-04-26T13:30:43.377Z,58.40
2023-04-26T13:31:46.161Z,58.70
2023-04-26T13:32:49.801Z,58.90
2023-04-26T13:33:52.353Z,59.20
2023-04-26T13:34:57.324Z,59.30
2023-04-26T13:35:59.745Z,59.50
2023-04-26T13:37:04.189Z,59.30
2023-04-26T13:38:07.616Z,59.40
2023-04-26T13:39:10.087Z,59.40
2023-04-26T13:40:14.340Z,59.60
2023-04-26T13:41:16.757Z,59.70
2023-04-26T13:42:20.601Z,59.80
2023-04-26T13:43:24.254Z,60.00
2023-04-26T13:44:28.480Z,60.10
2023-04-26T13:45:35.852Z,60.30
2023-04-26T13:46:38.445Z,60.30
2023-04-26T13:47:42.100Z,60.30
2023-04-26T13:48:44.627Z,60.40
2023-04-26T13:49:48.097Z,60.50
2023-04-26T13:50:53.131Z,60.10
2023-04-26T13:51:55.647Z,60.20
2023-04-26T13:52:59.299Z,60.40
2023-04-26T13:54:01.764Z,60.60